sensor_id;sensor_type;location;lat;lon;timestamp;pressure;altitude;pressure_sealevel;temperature;humidity
47636;BME280;33364;50.766;15.338;2023-10-19T00:00:38;94149.41;;;5.25;77.42
47636;BME280;33364;50.766;15.338;2023-10-19T00:03:30;94142.06;;;5.27;76.88
47636;BME280;33364;50.766;15.338;2023-10-19T00:05:56;94130.84;;;5.21;77.83
47636;BME280;33364;50.766;15.338;2023-10-19T00:08:22;94126.88;;;5.24;77.65
47636;BME280;33364;50.766;15.338;2023-10-19T00:10:50;94114.63;;;5.19;77.81
47636;BME280;33364;50.766;15.338;2023-10-19T00:13:34;94116.22;;;5.15;77.81
47636;BME280;33364;50.766;15.338;2023-10-19T00:16:07;94115.69;;;5.18;77.82
47636;BME280;33364;50.766;15.338;2023-10-19T00:18:44;94098.66;;;5.21;77.36
47636;BME280;33364;50.766;15.338;2023-10-19T00:21:09;94100.22;;;5.22;78.03
47636;BME280;33364;50.766;15.338;2023-10-19T00:23:41;94088.88;;;5.31;77.44
47636;BME280;33364;50.766;15.338;2023-10-19T00:26:07;94091.31;;;5.23;77.43
47636;BME280;33364;50.766;15.338;2023-10-19T00:28:41;94092.34;;;5.27;77.44
47636;BME280;33364;50.766;15.338;2023-10-19T00:31:06;94083.19;;;5.24;77.70
47636;BME280;33364;50.766;15.338;2023-10-19T00:33:37;94077.75;;;5.16;78.17
47636;BME280;33364;50.766;15.338;2023-10-19T00:36:07;94079.84;;;5.14;77.60
47636;BME280;33364;50.766;15.338;2023-10-19T00:38:35;94066.13;;;5.32;77.15
47636;BME280;33364;50.766;15.338;2023-10-19T00:41:01;94080.59;;;5.19;77.28
47636;BME280;33364;50.766;15.338;2023-10-19T00:43:39;94070.94;;;5.15;77.33
47636;BME280;33364;50.766;15.338;2023-10-19T00:46:11;94068.81;;;5.22;76.97
47636;BME280;33364;50.766;15.338;2023-10-19T00:49:07;94076.44;;;5.18;77.62
47636;BME280;33364;50.766;15.338;2023-10-19T00:51:36;94062.66;;;5.07;78.85
47636;BME280;33364;50.766;15.338;2023-10-19T00:54:14;94056.16;;;5.00;79.37
47636;BME280;33364;50.766;15.338;2023-10-19T00:56:43;94056.16;;;5.00;78.58
47636;BME280;33364;50.766;15.338;2023-10-19T00:59:19;94055.22;;;5.20;77.33
47636;BME280;33364;50.766;15.338;2023-10-19T01:01:48;94042.00;;;5.35;78.56
47636;BME280;33364;50.766;15.338;2023-10-19T01:04:15;94043.91;;;5.24;77.83
47636;BME280;33364;50.766;15.338;2023-10-19T01:06:46;94047.00;;;4.97;78.81
47636;BME280;33364;50.766;15.338;2023-10-19T01:09:28;94029.59;;;5.17;77.54
47636;BME280;33364;50.766;15.338;2023-10-19T01:11:54;94025.34;;;5.26;77.29
47636;BME280;33364;50.766;15.338;2023-10-19T01:14:20;94018.56;;;5.20;78.05
47636;BME280;33364;50.766;15.338;2023-10-19T01:16:53;94006.53;;;5.19;78.87
47636;BME280;33364;50.766;15.338;2023-10-19T01:19:23;94010.44;;;5.21;78.06
47636;BME280;33364;50.766;15.338;2023-10-19T01:21:49;94014.13;;;5.20;78.21
47636;BME280;33364;50.766;15.338;2023-10-19T01:24:19;94004.44;;;5.21;78.01
47636;BME280;33364;50.766;15.338;2023-10-19T01:26:51;93995.22;;;5.28;78.36
47636;BME280;33364;50.766;15.338;2023-10-19T01:29:20;93988.16;;;5.24;77.21
47636;BME280;33364;50.766;15.338;2023-10-19T01:31:52;93988.88;;;5.34;76.47
47636;BME280;33364;50.766;15.338;2023-10-19T01:34:32;93979.69;;;5.37;76.77
47636;BME280;33364;50.766;15.338;2023-10-19T01:37:02;93975.03;;;5.29;77.70
47636;BME280;33364;50.766;15.338;2023-10-19T01:39:32;93965.34;;;5.29;77.52
47636;BME280;33364;50.766;15.338;2023-10-19T01:42:00;93968.69;;;5.35;77.87
47636;BME280;33364;50.766;15.338;2023-10-19T01:44:26;93957.75;;;5.33;77.36
47636;BME280;33364;50.766;15.338;2023-10-19T01:46:53;93949.53;;;5.39;77.72
47636;BME280;33364;50.766;15.338;2023-10-19T01:49:19;93948.78;;;5.39;77.89
47636;BME280;33364;50.766;15.338;2023-10-19T01:51:54;93947.72;;;5.40;77.84
47636;BME280;33364;50.766;15.338;2023-10-19T01:54:21;93939.63;;;5.36;77.26
47636;BME280;33364;50.766;15.338;2023-10-19T01:56:54;93930.56;;;5.52;76.31
47636;BME280;33364;50.766;15.338;2023-10-19T01:59:27;93933.41;;;5.56;76.07
47636;BME280;33364;50.766;15.338;2023-10-19T02:01:53;93929.19;;;5.60;75.55
47636;BME280;33364;50.766;15.338;2023-10-19T02:04:21;93933.91;;;5.58;76.32
47636;BME280;33364;50.766;15.338;2023-10-19T02:06:49;93928.41;;;5.60;76.48
47636;BME280;33364;50.766;15.338;2023-10-19T02:09:18;93931.81;;;5.60;76.44
47636;BME280;33364;50.766;15.338;2023-10-19T02:11:51;93921.28;;;5.65;75.72
47636;BME280;33364;50.766;15.338;2023-10-19T02:14:27;93933.06;;;5.63;77.02
47636;BME280;33364;50.766;15.338;2023-10-19T02:16:57;93921.59;;;5.59;77.44
47636;BME280;33364;50.766;15.338;2023-10-19T02:19:26;93915.59;;;5.58;78.49
47636;BME280;33364;50.766;15.338;2023-10-19T02:21:54;93920.38;;;5.51;79.15
47636;BME280;33364;50.766;15.338;2023-10-19T02:24:23;93913.25;;;5.57;79.02
47636;BME280;33364;50.766;15.338;2023-10-19T02:26:52;93908.00;;;5.57;78.63
47636;BME280;33364;50.766;15.338;2023-10-19T02:29:18;93908.91;;;5.47;78.35
47636;BME280;33364;50.766;15.338;2023-10-19T02:31:44;93902.16;;;5.41;78.70
47636;BME280;33364;50.766;15.338;2023-10-19T02:34:13;93907.91;;;5.43;78.91
47636;BME280;33364;50.766;15.338;2023-10-19T02:36:41;93909.56;;;5.34;79.76
47636;BME280;33364;50.766;15.338;2023-10-19T02:39:10;93904.66;;;5.27;79.55
47636;BME280;33364;50.766;15.338;2023-10-19T02:41:39;93899.06;;;5.39;78.81
47636;BME280;33364;50.766;15.338;2023-10-19T02:44:14;93900.31;;;5.41;79.98
47636;BME280;33364;50.766;15.338;2023-10-19T02:46:44;93895.59;;;5.43;78.99
47636;BME280;33364;50.766;15.338;2023-10-19T02:49:12;93910.25;;;5.44;79.81
47636;BME280;33364;50.766;15.338;2023-10-19T02:51:40;93895.53;;;5.48;80.05
47636;BME280;33364;50.766;15.338;2023-10-19T02:54:07;93885.34;;;5.47;80.03
47636;BME280;33364;50.766;15.338;2023-10-19T02:56:37;93881.66;;;5.48;80.49
47636;BME280;33364;50.766;15.338;2023-10-19T02:59:06;93882.88;;;5.56;78.95
47636;BME280;33364;50.766;15.338;2023-10-19T03:01:32;93888.28;;;5.64;79.07
47636;BME280;33364;50.766;15.338;2023-10-19T03:04:01;93887.72;;;5.67;79.24
47636;BME280;33364;50.766;15.338;2023-10-19T03:06:31;93891.38;;;5.66;78.90
47636;BME280;33364;50.766;15.338;2023-10-19T03:09:04;93888.22;;;5.69;78.98
47636;BME280;33364;50.766;15.338;2023-10-19T03:11:41;93867.75;;;5.71;78.04
47636;BME280;33364;50.766;15.338;2023-10-19T03:14:08;93877.41;;;5.76;78.24
47636;BME280;33364;50.766;15.338;2023-10-19T03:16:36;93875.53;;;5.76;78.94
47636;BME280;33364;50.766;15.338;2023-10-19T03:19:02;93871.31;;;5.80;78.70
47636;BME280;33364;50.766;15.338;2023-10-19T03:21:30;93873.09;;;5.85;77.89
47636;BME280;33364;50.766;15.338;2023-10-19T03:24:02;93877.81;;;5.83;78.23
47636;BME280;33364;50.766;15.338;2023-10-19T03:26:48;93866.97;;;5.94;76.54
47636;BME280;33364;50.766;15.338;2023-10-19T03:29:16;93864.34;;;5.94;77.31
47636;BME280;33364;50.766;15.338;2023-10-19T03:31:47;93861.53;;;5.91;77.81
47636;BME280;33364;50.766;15.338;2023-10-19T03:34:14;93866.47;;;5.92;78.61
47636;BME280;33364;50.766;15.338;2023-10-19T03:36:42;93862.84;;;5.88;78.11
47636;BME280;33364;50.766;15.338;2023-10-19T03:39:08;93856.59;;;5.84;78.43
47636;BME280;33364;50.766;15.338;2023-10-19T03:41:39;93855.00;;;5.88;77.61
47636;BME280;33364;50.766;15.338;2023-10-19T03:44:08;93848.13;;;5.92;77.25
47636;BME280;33364;50.766;15.338;2023-10-19T03:46:44;93843.31;;;6.00;77.98
47636;BME280;33364;50.766;15.338;2023-10-19T03:49:19;93836.09;;;5.91;78.78
47636;BME280;33364;50.766;15.338;2023-10-19T03:51:46;93832.31;;;5.98;78.78
47636;BME280;33364;50.766;15.338;2023-10-19T03:54:27;93833.41;;;5.97;79.53
47636;BME280;33364;50.766;15.338;2023-10-19T03:56:54;93826.09;;;5.93;79.58
47636;BME280;33364;50.766;15.338;2023-10-19T03:59:22;93815.94;;;5.92;80.00
47636;BME280;33364;50.766;15.338;2023-10-19T04:01:49;93809.31;;;5.94;79.74
47636;BME280;33364;50.766;15.338;2023-10-19T04:04:16;93802.88;;;5.87;79.32
47636;BME280;33364;50.766;15.338;2023-10-19T04:06:42;93788.44;;;5.89;78.99
47636;BME280;33364;50.766;15.338;2023-10-19T04:09:14;93791.06;;;5.89;79.41
47636;BME280;33364;50.766;15.338;2023-10-19T04:11:43;93780.59;;;5.89;79.52
47636;BME280;33364;50.766;15.338;2023-10-19T04:14:17;93773.00;;;5.88;79.64
47636;BME280;33364;50.766;15.338;2023-10-19T04:16:43;93758.06;;;5.88;80.39
47636;BME280;33364;50.766;15.338;2023-10-19T04:19:10;93762.50;;;5.88;80.80
47636;BME280;33364;50.766;15.338;2023-10-19T04:21:36;93754.38;;;5.89;81.35
47636;BME280;33364;50.766;15.338;2023-10-19T04:24:10;93742.91;;;5.85;82.38
47636;BME280;33364;50.766;15.338;2023-10-19T04:26:37;93740.28;;;5.85;81.91
47636;BME280;33364;50.766;15.338;2023-10-19T04:29:04;93735.03;;;5.85;81.83
47636;BME280;33364;50.766;15.338;2023-10-19T04:31:37;93712.00;;;5.82;83.13
47636;BME280;33364;50.766;15.338;2023-10-19T04:34:15;93697.06;;;5.83;83.44
47636;BME280;33364;50.766;15.338;2023-10-19T04:36:41;93684.66;;;5.75;84.38
47636;BME280;33364;50.766;15.338;2023-10-19T04:39:08;93687.53;;;5.73;84.40
47636;BME280;33364;50.766;15.338;2023-10-19T04:41:41;93696.47;;;5.72;84.77
47636;BME280;33364;50.766;15.338;2023-10-19T04:44:07;93689.38;;;5.73;85.42
47636;BME280;33364;50.766;15.338;2023-10-19T04:46:36;93696.84;;;5.66;86.83
47636;BME280;33364;50.766;15.338;2023-10-19T04:49:03;93687.34;;;5.70;86.93
47636;BME280;33364;50.766;15.338;2023-10-19T04:51:29;93691.03;;;5.69;87.15
47636;BME280;33364;50.766;15.338;2023-10-19T04:53:56;93697.31;;;5.68;87.20
47636;BME280;33364;50.766;15.338;2023-10-19T04:56:21;93692.94;;;5.63;87.24
47636;BME280;33364;50.766;15.338;2023-10-19T04:58:48;93701.16;;;5.57;87.70
47636;BME280;33364;50.766;15.338;2023-10-19T05:01:14;93706.41;;;5.38;88.24
47636;BME280;33364;50.766;15.338;2023-10-19T05:03:41;93711.41;;;5.34;88.84
47636;BME280;33364;50.766;15.338;2023-10-19T05:06:07;93707.88;;;5.44;88.54
47636;BME280;33364;50.766;15.338;2023-10-19T05:08:33;93707.31;;;5.47;88.57
47636;BME280;33364;50.766;15.338;2023-10-19T05:10:59;93701.22;;;5.51;88.14
47636;BME280;33364;50.766;15.338;2023-10-19T05:13:25;93691.94;;;5.40;89.04
47636;BME280;33364;50.766;15.338;2023-10-19T05:15:52;93699.81;;;5.40;88.84
47636;BME280;33364;50.766;15.338;2023-10-19T05:18:22;93695.78;;;5.48;88.14
47636;BME280;33364;50.766;15.338;2023-10-19T05:20:48;93688.19;;;5.46;88.35
47636;BME280;33364;50.766;15.338;2023-10-19T05:23:15;93672.41;;;5.51;88.49
47636;BME280;33364;50.766;15.338;2023-10-19T05:25:41;93678.44;;;5.52;88.25
47636;BME280;33364;50.766;15.338;2023-10-19T05:28:07;93687.41;;;5.46;88.60
47636;BME280;33364;50.766;15.338;2023-10-19T05:30:35;93693.50;;;5.41;88.52
47636;BME280;33364;50.766;15.338;2023-10-19T05:33:01;93705.19;;;5.49;88.54
47636;BME280;33364;50.766;15.338;2023-10-19T05:35:28;93711.97;;;5.50;88.44
47636;BME280;33364;50.766;15.338;2023-10-19T05:37:56;93721.75;;;5.44;89.00
47636;BME280;33364;50.766;15.338;2023-10-19T05:40:24;93728.53;;;5.45;88.90
47636;BME280;33364;50.766;15.338;2023-10-19T05:42:55;93710.06;;;5.37;89.02
47636;BME280;33364;50.766;15.338;2023-10-19T05:45:22;93712.63;;;5.42;89.12
47636;BME280;33364;50.766;15.338;2023-10-19T05:47:48;93710.50;;;5.44;88.47
47636;BME280;33364;50.766;15.338;2023-10-19T05:50:13;93712.34;;;5.43;89.27
47636;BME280;33364;50.766;15.338;2023-10-19T05:52:43;93712.53;;;5.47;89.25
47636;BME280;33364;50.766;15.338;2023-10-19T05:55:09;93714.38;;;5.46;89.43
47636;BME280;33364;50.766;15.338;2023-10-19T05:57:39;93718.28;;;5.49;89.54
47636;BME280;33364;50.766;15.338;2023-10-19T06:00:09;93698.69;;;5.46;89.42
47636;BME280;33364;50.766;15.338;2023-10-19T06:02:43;93710.72;;;5.47;89.67
47636;BME280;33364;50.766;15.338;2023-10-19T06:05:10;93705.13;;;5.54;89.23
47636;BME280;33364;50.766;15.338;2023-10-19T06:07:36;93713.88;;;5.63;88.99
47636;BME280;33364;50.766;15.338;2023-10-19T06:10:02;93716.63;;;5.72;88.21
47636;BME280;33364;50.766;15.338;2023-10-19T06:12:31;93719.13;;;5.63;89.04
47636;BME280;33364;50.766;15.338;2023-10-19T06:14:58;93694.97;;;5.66;88.38
47636;BME280;33364;50.766;15.338;2023-10-19T06:17:24;93696.84;;;5.66;88.34
47636;BME280;33364;50.766;15.338;2023-10-19T06:19:49;93691.72;;;5.74;87.83
47636;BME280;33364;50.766;15.338;2023-10-19T06:22:15;93704.38;;;5.67;88.37
47636;BME280;33364;50.766;15.338;2023-10-19T06:24:42;93711.38;;;5.72;88.06
47636;BME280;33364;50.766;15.338;2023-10-19T06:27:10;93707.50;;;5.69;88.46
47636;BME280;33364;50.766;15.338;2023-10-19T06:29:35;93705.78;;;5.78;88.13
47636;BME280;33364;50.766;15.338;2023-10-19T06:32:01;93712.09;;;5.77;88.37
47636;BME280;33364;50.766;15.338;2023-10-19T06:34:28;93717.84;;;5.79;88.27
47636;BME280;33364;50.766;15.338;2023-10-19T06:36:54;93710.59;;;5.71;88.28
47636;BME280;33364;50.766;15.338;2023-10-19T06:39:20;93698.69;;;5.65;88.32
47636;BME280;33364;50.766;15.338;2023-10-19T06:41:47;93688.69;;;5.67;88.47
47636;BME280;33364;50.766;15.338;2023-10-19T06:44:13;93684.22;;;5.68;88.28
47636;BME280;33364;50.766;15.338;2023-10-19T06:46:39;93685.19;;;5.72;88.54
47636;BME280;33364;50.766;15.338;2023-10-19T06:49:05;93675.72;;;5.76;88.84
47636;BME280;33364;50.766;15.338;2023-10-19T06:51:31;93675.41;;;5.77;89.37
47636;BME280;33364;50.766;15.338;2023-10-19T06:53:58;93658.56;;;5.83;89.19
47636;BME280;33364;50.766;15.338;2023-10-19T06:56:24;93657.00;;;5.82;89.75
47636;BME280;33364;50.766;15.338;2023-10-19T06:58:50;93659.94;;;5.81;89.83
47636;BME280;33364;50.766;15.338;2023-10-19T07:01:16;93654.84;;;5.89;89.14
47636;BME280;33364;50.766;15.338;2023-10-19T07:03:43;93640.94;;;5.89;89.17
47636;BME280;33364;50.766;15.338;2023-10-19T07:06:10;93638.34;;;5.89;87.50
47636;BME280;33364;50.766;15.338;2023-10-19T07:08:40;93641.06;;;5.98;88.54
47636;BME280;33364;50.766;15.338;2023-10-19T07:11:08;93634.06;;;5.93;88.80
47636;BME280;33364;50.766;15.338;2023-10-19T07:13:34;93635.81;;;5.98;88.48
47636;BME280;33364;50.766;15.338;2023-10-19T07:16:01;93649.59;;;5.89;89.37
47636;BME280;33364;50.766;15.338;2023-10-19T07:18:29;93647.47;;;5.91;89.40
47636;BME280;33364;50.766;15.338;2023-10-19T07:20:55;93635.22;;;5.87;89.26
47636;BME280;33364;50.766;15.338;2023-10-19T07:23:28;93635.06;;;5.97;89.26
47636;BME280;33364;50.766;15.338;2023-10-19T07:25:54;93631.66;;;5.97;88.58
47636;BME280;33364;50.766;15.338;2023-10-19T07:28:22;93629.59;;;5.93;88.88
47636;BME280;33364;50.766;15.338;2023-10-19T07:30:52;93637.00;;;5.91;88.91
47636;BME280;33364;50.766;15.338;2023-10-19T07:33:18;93624.94;;;5.90;89.22
47636;BME280;33364;50.766;15.338;2023-10-19T07:35:46;93616.09;;;5.86;89.79
47636;BME280;33364;50.766;15.338;2023-10-19T07:38:16;93616.03;;;5.91;89.39
47636;BME280;33364;50.766;15.338;2023-10-19T07:40:43;93607.09;;;5.92;89.33
47636;BME280;33364;50.766;15.338;2023-10-19T07:43:12;93611.47;;;5.97;89.07
47636;BME280;33364;50.766;15.338;2023-10-19T07:45:38;93613.22;;;6.02;89.07
47636;BME280;33364;50.766;15.338;2023-10-19T07:48:04;93626.72;;;6.09;89.31
47636;BME280;33364;50.766;15.338;2023-10-19T07:50:37;93639.81;;;6.09;89.23
47636;BME280;33364;50.766;15.338;2023-10-19T07:53:03;93634.19;;;6.02;90.13
47636;BME280;33364;50.766;15.338;2023-10-19T07:55:30;93637.56;;;5.88;90.41
47636;BME280;33364;50.766;15.338;2023-10-19T07:57:59;93637.88;;;5.82;91.26
47636;BME280;33364;50.766;15.338;2023-10-19T08:00:29;93646.78;;;5.67;91.75
47636;BME280;33364;50.766;15.338;2023-10-19T08:02:55;93640.03;;;5.80;91.65
47636;BME280;33364;50.766;15.338;2023-10-19T08:05:22;93648.09;;;5.83;91.13
47636;BME280;33364;50.766;15.338;2023-10-19T08:07:47;93635.44;;;5.90;91.11
47636;BME280;33364;50.766;15.338;2023-10-19T08:10:16;93623.81;;;5.97;90.89
47636;BME280;33364;50.766;15.338;2023-10-19T08:12:44;93624.97;;;6.04;90.80
47636;BME280;33364;50.766;15.338;2023-10-19T08:15:13;93617.00;;;6.09;90.72
47636;BME280;33364;50.766;15.338;2023-10-19T08:17:48;93610.81;;;6.05;90.94
47636;BME280;33364;50.766;15.338;2023-10-19T08:20:15;93611.69;;;6.14;90.79
47636;BME280;33364;50.766;15.338;2023-10-19T08:22:42;93619.53;;;6.14;90.76
47636;BME280;33364;50.766;15.338;2023-10-19T08:25:09;93618.66;;;6.19;90.68
47636;BME280;33364;50.766;15.338;2023-10-19T08:27:47;93628.31;;;6.23;90.68
47636;BME280;33364;50.766;15.338;2023-10-19T08:30:18;93626.38;;;6.29;90.45
47636;BME280;33364;50.766;15.338;2023-10-19T08:32:45;93634.69;;;6.31;89.72
47636;BME280;33364;50.766;15.338;2023-10-19T08:35:19;93635.25;;;6.14;90.05
47636;BME280;33364;50.766;15.338;2023-10-19T08:37:52;93622.84;;;6.06;90.34
47636;BME280;33364;50.766;15.338;2023-10-19T08:40:19;93620.13;;;6.11;90.74
47636;BME280;33364;50.766;15.338;2023-10-19T08:42:47;93617.22;;;6.13;90.71
47636;BME280;33364;50.766;15.338;2023-10-19T08:45:14;93608.88;;;6.11;91.08
47636;BME280;33364;50.766;15.338;2023-10-19T08:47:43;93598.78;;;6.18;91.10
47636;BME280;33364;50.766;15.338;2023-10-19T08:50:13;93604.72;;;6.23;91.04
47636;BME280;33364;50.766;15.338;2023-10-19T08:52:41;93598.69;;;6.23;91.48
47636;BME280;33364;50.766;15.338;2023-10-19T08:55:08;93594.22;;;6.23;91.17
47636;BME280;33364;50.766;15.338;2023-10-19T08:57:39;93595.66;;;6.29;89.93
47636;BME280;33364;50.766;15.338;2023-10-19T09:00:05;93614.59;;;6.40;89.64
47636;BME280;33364;50.766;15.338;2023-10-19T09:02:32;93612.97;;;6.44;89.86
47636;BME280;33364;50.766;15.338;2023-10-19T09:04:59;93605.66;;;6.41;90.32
47636;BME280;33364;50.766;15.338;2023-10-19T09:07:25;93606.06;;;6.34;90.56
47636;BME280;33364;50.766;15.338;2023-10-19T09:09:56;93599.97;;;6.39;90.51
47636;BME280;33364;50.766;15.338;2023-10-19T09:12:22;93593.53;;;6.45;89.86
47636;BME280;33364;50.766;15.338;2023-10-19T09:14:49;93600.31;;;6.46;89.86
47636;BME280;33364;50.766;15.338;2023-10-19T09:17:15;93607.91;;;6.48;90.03
47636;BME280;33364;50.766;15.338;2023-10-19T09:19:45;93605.78;;;6.50;90.35
47636;BME280;33364;50.766;15.338;2023-10-19T09:22:13;93607.03;;;6.52;90.56
47636;BME280;33364;50.766;15.338;2023-10-19T09:24:45;93613.84;;;6.53;90.82
47636;BME280;33364;50.766;15.338;2023-10-19T09:27:11;93610.63;;;6.56;90.73
47636;BME280;33364;50.766;15.338;2023-10-19T09:29:39;93615.84;;;6.56;91.14
47636;BME280;33364;50.766;15.338;2023-10-19T09:32:07;93631.50;;;6.61;90.60
47636;BME280;33364;50.766;15.338;2023-10-19T09:34:34;93635.31;;;6.55;90.78
47636;BME280;33364;50.766;15.338;2023-10-19T09:37:00;93627.81;;;6.49;90.47
47636;BME280;33364;50.766;15.338;2023-10-19T09:39:30;93614.03;;;6.43;89.80
47636;BME280;33364;50.766;15.338;2023-10-19T09:42:07;93611.88;;;6.45;89.93
47636;BME280;33364;50.766;15.338;2023-10-19T09:44:43;93616.06;;;6.46;90.19
47636;BME280;33364;50.766;15.338;2023-10-19T09:47:35;93618.78;;;6.41;90.82
47636;BME280;33364;50.766;15.338;2023-10-19T09:49:57;93615.66;;;6.25;91.28
47636;BME280;33364;50.766;15.338;2023-10-19T09:52:23;93609.44;;;6.35;91.16
47636;BME280;33364;50.766;15.338;2023-10-19T09:55:12;93598.97;;;6.35;90.85
47636;BME280;33364;50.766;15.338;2023-10-19T09:58:13;93585.97;;;6.30;91.08
47636;BME280;33364;50.766;15.338;2023-10-19T10:00:45;93585.28;;;6.38;90.50
47636;BME280;33364;50.766;15.338;2023-10-19T10:03:51;93577.53;;;6.33;91.04
47636;BME280;33364;50.766;15.338;2023-10-19T10:06:27;93573.44;;;6.27;91.54
47636;BME280;33364;50.766;15.338;2023-10-19T10:08:53;93569.66;;;6.33;91.51
47636;BME280;33364;50.766;15.338;2023-10-19T10:11:26;93563.25;;;6.39;91.11
47636;BME280;33364;50.766;15.338;2023-10-19T10:13:56;93564.53;;;6.28;91.53
47636;BME280;33364;50.766;15.338;2023-10-19T10:16:24;93565.66;;;6.35;91.67
47636;BME280;33364;50.766;15.338;2023-10-19T10:18:54;93562.25;;;6.35;91.28
47636;BME280;33364;50.766;15.338;2023-10-19T10:21:22;93550.16;;;6.39;91.36
47636;BME280;33364;50.766;15.338;2023-10-19T10:23:57;93555.28;;;6.44;91.22
47636;BME280;33364;50.766;15.338;2023-10-19T10:26:30;93542.53;;;6.51;91.36
47636;BME280;33364;50.766;15.338;2023-10-19T10:29:12;93544.59;;;6.54;90.98
47636;BME280;33364;50.766;15.338;2023-10-19T10:31:44;93539.13;;;6.64;90.38
47636;BME280;33364;50.766;15.338;2023-10-19T10:34:41;93529.19;;;6.75;90.44
47636;BME280;33364;50.766;15.338;2023-10-19T10:37:01;93527.81;;;6.77;90.13
47636;BME280;33364;50.766;15.338;2023-10-19T10:39:31;93524.59;;;6.81;90.96
47636;BME280;33364;50.766;15.338;2023-10-19T10:42:02;93521.31;;;6.75;90.42
47636;BME280;33364;50.766;15.338;2023-10-19T10:44:46;93511.72;;;6.93;90.19
47636;BME280;33364;50.766;15.338;2023-10-19T10:47:21;93514.13;;;7.03;89.87
47636;BME280;33364;50.766;15.338;2023-10-19T10:50:00;93502.25;;;7.05;89.93
47636;BME280;33364;50.766;15.338;2023-10-19T10:52:30;93504.72;;;7.02;89.33
47636;BME280;33364;50.766;15.338;2023-10-19T10:55:10;93505.81;;;7.09;89.21
47636;BME280;33364;50.766;15.338;2023-10-19T10:57:38;93508.03;;;7.16;89.01
47636;BME280;33364;50.766;15.338;2023-10-19T11:02:35;93492.16;;;7.21;89.81
47636;BME280;33364;50.766;15.338;2023-10-19T11:05:01;93488.97;;;7.24;88.83
47636;BME280;33364;50.766;15.338;2023-10-19T11:07:27;93481.91;;;7.33;88.79
47636;BME280;33364;50.766;15.338;2023-10-19T11:09:53;93473.59;;;7.40;88.23
47636;BME280;33364;50.766;15.338;2023-10-19T11:12:19;93473.91;;;7.47;88.44
47636;BME280;33364;50.766;15.338;2023-10-19T11:14:58;93471.13;;;7.43;89.02
47636;BME280;33364;50.766;15.338;2023-10-19T11:17:25;93466.78;;;7.39;89.29
47636;BME280;33364;50.766;15.338;2023-10-19T11:19:59;93474.84;;;7.42;88.92
47636;BME280;33364;50.766;15.338;2023-10-19T11:22:25;93469.75;;;7.46;89.22
47636;BME280;33364;50.766;15.338;2023-10-19T11:24:55;93478.59;;;7.50;89.85
47636;BME280;33364;50.766;15.338;2023-10-19T11:27:26;93481.63;;;7.43;89.88
47636;BME280;33364;50.766;15.338;2023-10-19T11:29:59;93470.00;;;7.36;90.61
47636;BME280;33364;50.766;15.338;2023-10-19T11:32:36;93476.66;;;7.33;90.97
47636;BME280;33364;50.766;15.338;2023-10-19T11:35:06;93470.75;;;7.28;91.37
47636;BME280;33364;50.766;15.338;2023-10-19T11:37:49;93470.69;;;7.19;91.74
47636;BME280;33364;50.766;15.338;2023-10-19T11:40:15;93461.03;;;7.06;91.59
47636;BME280;33364;50.766;15.338;2023-10-19T11:42:41;93465.56;;;7.14;91.52
47636;BME280;33364;50.766;15.338;2023-10-19T11:45:07;93491.34;;;7.12;91.24
47636;BME280;33364;50.766;15.338;2023-10-19T11:47:33;93488.34;;;7.27;91.42
47636;BME280;33364;50.766;15.338;2023-10-19T11:49:59;93478.59;;;7.19;91.40
47636;BME280;33364;50.766;15.338;2023-10-19T11:52:25;93467.94;;;7.24;91.58
47636;BME280;33364;50.766;15.338;2023-10-19T11:54:50;93468.69;;;7.25;90.99
47636;BME280;33364;50.766;15.338;2023-10-19T11:57:16;93484.31;;;7.30;90.81
47636;BME280;33364;50.766;15.338;2023-10-19T11:59:42;93479.69;;;7.27;91.70
47636;BME280;33364;50.766;15.338;2023-10-19T12:02:08;93472.88;;;7.26;91.96
47636;BME280;33364;50.766;15.338;2023-10-19T12:04:35;93462.56;;;7.29;91.75
47636;BME280;33364;50.766;15.338;2023-10-19T12:07:02;93459.81;;;7.34;91.68
47636;BME280;33364;50.766;15.338;2023-10-19T12:09:29;93467.69;;;7.34;91.49
47636;BME280;33364;50.766;15.338;2023-10-19T12:11:56;93462.13;;;7.36;91.93
47636;BME280;33364;50.766;15.338;2023-10-19T12:14:22;93454.31;;;7.44;91.81
47636;BME280;33364;50.766;15.338;2023-10-19T12:16:48;93463.09;;;7.40;91.89
47636;BME280;33364;50.766;15.338;2023-10-19T12:19:14;93451.50;;;7.41;92.00
47636;BME280;33364;50.766;15.338;2023-10-19T12:21:42;93449.06;;;7.44;91.93
47636;BME280;33364;50.766;15.338;2023-10-19T12:24:08;93454.34;;;7.53;92.00
47636;BME280;33364;50.766;15.338;2023-10-19T12:26:34;93453.56;;;7.52;91.86
47636;BME280;33364;50.766;15.338;2023-10-19T12:28:59;93447.38;;;7.48;92.07
47636;BME280;33364;50.766;15.338;2023-10-19T12:31:25;93441.34;;;7.48;91.93
47636;BME280;33364;50.766;15.338;2023-10-19T12:33:52;93441.03;;;7.49;92.21
47636;BME280;33364;50.766;15.338;2023-10-19T12:36:19;93440.28;;;7.57;92.12
47636;BME280;33364;50.766;15.338;2023-10-19T12:38:54;93442.19;;;7.66;92.01
47636;BME280;33364;50.766;15.338;2023-10-19T12:41:23;93441.56;;;7.69;92.23
47636;BME280;33364;50.766;15.338;2023-10-19T12:43:56;93443.41;;;7.59;92.13
47636;BME280;33364;50.766;15.338;2023-10-19T12:46:28;93438.75;;;7.56;91.99
47636;BME280;33364;50.766;15.338;2023-10-19T12:48:56;93435.97;;;7.61;91.92
47636;BME280;33364;50.766;15.338;2023-10-19T12:51:22;93433.69;;;7.69;92.12
47636;BME280;33364;50.766;15.338;2023-10-19T12:53:51;93430.47;;;7.72;92.13
47636;BME280;33364;50.766;15.338;2023-10-19T12:56:21;93435.09;;;7.75;92.30
47636;BME280;33364;50.766;15.338;2023-10-19T12:58:50;93432.78;;;7.73;92.24
47636;BME280;33364;50.766;15.338;2023-10-19T13:01:16;93429.41;;;7.81;92.12
47636;BME280;33364;50.766;15.338;2023-10-19T13:03:43;93429.22;;;7.78;91.72
47636;BME280;33364;50.766;15.338;2023-10-19T13:06:12;93425.97;;;7.72;91.92
47636;BME280;33364;50.766;15.338;2023-10-19T13:08:39;93425.53;;;7.79;92.36
47636;BME280;33364;50.766;15.338;2023-10-19T13:11:07;93432.97;;;7.77;92.04
47636;BME280;33364;50.766;15.338;2023-10-19T13:15:58;93423.03;;;7.74;92.00